Ekalaka, MT (59324)

12:20 AM MDT on September 03, 2014 (GMT -0600)
Baker Municipal | Change Station
CLOSE
Current Station
Airport
Location: Baker,
Elevation: 2972 ft
Nearby Weather Stations

Elev 2972 ft 46.35 °N, 104.26 °W | Updated 29 minutes ago

Clear
Clear
50 °F
Feels Like 50 °F
N
4
Wind Variable Wind from ESE

Today
High -- | Low -- °F
--% Chance of Precip.
Yesterday
High -- | Low -- °F
Precip. -- in
6:21 AM 7:32 PM
First Quarter, 59% visible
Pressure 29.73 in
Visibility 10.0 miles
Clouds Clear
Dew Point 45 °F
Humidity 83%
Rainfall 0.00 in
Snow Depth Not available.
UV 0 out of 12
Pollen 8.50 out of 12
Air Quality Not available.
Flu Activity Not available.
METAR KBHK 030551Z AUTO 11003KT 10SM CLR 10/07 A2976 RMK AO2 SLP067 T01000072 10233 20100 58009

More Conditions Fewer Conditions

Pressure 29.73 in
Visibility 10.0 miles
Clouds Clear
Dew Point 45 °F
Humidity 83%
Rainfall 0.00 in
Snow Depth Not available.
UV 0 out of 12
Pollen 8.50 out of 12
Air Quality Not available.
Flu Activity Not available.
METAR KBHK 030551Z AUTO 11003KT 10SM CLR 10/07 A2976 RMK AO2 SLP067 T01000072 10233 20100 58009

More Conditions Fewer Conditions

10-Day Weather Forecast

Almanac

Astronomy

Sep. 03, 2014 Rise Set
Actual Time 6:21 AM MDT 7:32 PM MDT
Civil Twilight 5:50 AM MDT 8:02 PM MDT
Nautical Twilight 5:13 AM MDT 8:39 PM MDT
Astronomical Twilight 4:34 AM MDT 9:18 PM MDT
Moon 3:26 PM MDT 12:07 AM MDT
Length of Visible Light 14h 12m
Length of Day
13h 10m
Tomorrow will be 3m 7s shorter.
First Quarter, 59% of the Moon is Illuminated
Today
First Quarter
Sep 8
Full
Sep 15
Last Quarter
Sep 24
New
Oct 1
First Quarter

Today's Extremes

State Highs State Lows

Community

WunderPhotos

Upload Photos

1,749,888 photos uploaded!

Nearby

Snow Depth

Station Depth Elevation
Cole Creek 0 in 7850 ft
Crystal Lake 1 in 6050 ft
White Mill 2 in 8700 ft
Placer Basin 0 in 8830 ft
Northeast Entrance 0 in 7350 ft

Earthquake Activity

City Distance Mag. Time & Date
No recent earthquake activity has been reported nearby.
Minimum magnitude displayed is 2.5.

Coastal Water Temperatures

Place Temperature
No Stations Reporting

Nearby Weather Stations